Terminal Aerodrome Forecast
Issued by NWS

Home | Current Version | Previous Version | Text Only | Print | Product List | Glossary Off
Versions: 1 2 3 4 5 6 7 8 9 10 11 12 13 14 15 16 17 18 19 20

000
FTUS43 KGRB 220900 AAB
TAFAUW
TAF AMD
KAUW 220900Z 2209/2306 10007KT P6SM OVC005
      TEMPO 2210/2214 3SM BR OVC002
     FM221500 03005KT P6SM BKN012
     FM221800 17005KT P6SM BKN025 OVC050
     FM222300 20005KT P6SM VCSH OVC050
     FM230200 25005KT 5SM -SHRA BKN035=

USA.gov is the U.S. government's official web portal to all federal, state and local government web resources and services.